createdAt,value
2018-09-01T00:03:30.255Z,13.90
2018-09-01T00:07:32.871Z,13.80
2018-09-01T00:11:35.616Z,13.80
2018-09-01T00:15:38.439Z,13.70
2018-09-01T00:19:41.116Z,13.60
2018-09-01T00:23:43.875Z,13.50
2018-09-01T00:27:46.542Z,13.40
2018-09-01T00:31:49.144Z,13.30
2018-09-01T00:35:51.862Z,13.20
2018-09-01T00:39:54.514Z,13.20
2018-09-01T00:43:57.207Z,13.00
2018-09-01T00:47:59.879Z,13.00
2018-09-01T00:52:02.495Z,12.90
2018-09-01T00:56:05.290Z,12.80
2018-09-01T01:00:07.956Z,12.70
2018-09-01T01:04:10.717Z,12.60
2018-09-01T01:08:13.374Z,12.50
2018-09-01T01:12:15.893Z,12.50
2018-09-01T01:16:18.601Z,12.40
2018-09-01T01:20:21.247Z,12.40
2018-09-01T01:24:23.871Z,12.30
2018-09-01T01:28:26.500Z,12.20
2018-09-01T01:32:29.116Z,12.10
2018-09-01T01:36:31.776Z,12.00
2018-09-01T01:40:34.447Z,12.00
2018-09-01T01:44:37.327Z,11.90
2018-09-01T01:48:40.157Z,11.90
2018-09-01T01:52:42.753Z,11.70
2018-09-01T01:56:45.402Z,11.70
2018-09-01T02:00:47.986Z,11.70
2018-09-01T02:04:50.564Z,11.70
2018-09-01T02:08:53.186Z,11.60
2018-09-01T02:12:55.776Z,11.50
2018-09-01T02:16:58.432Z,11.50
2018-09-01T02:21:01.037Z,11.40
2018-09-01T02:25:03.681Z,11.40
2018-09-01T02:29:06.499Z,11.30
2018-09-01T02:33:09.242Z,11.30
2018-09-01T02:37:11.963Z,11.30
2018-09-01T02:41:14.539Z,11.20
2018-09-01T02:45:17.158Z,11.10
2018-09-01T02:49:19.870Z,11.10
2018-09-01T02:53:22.472Z,11.00
2018-09-01T02:57:25.198Z,11.00
2018-09-01T03:01:33.548Z,10.90
2018-09-01T03:05:36.221Z,10.90
2018-09-01T03:09:38.866Z,10.80
2018-09-01T03:13:41.609Z,10.80
2018-09-01T03:17:44.205Z,10.80
2018-09-01T03:21:46.820Z,10.70
2018-09-01T03:25:49.525Z,10.70
2018-09-01T03:29:52.218Z,10.70
2018-09-01T03:33:54.980Z,10.60
2018-09-01T03:37:57.716Z,10.50
2018-09-01T03:42:00.324Z,10.40
2018-09-01T03:46:02.975Z,10.40
2018-09-01T03:50:05.722Z,10.40
2018-09-01T03:54:08.358Z,10.40
2018-09-01T03:58:11.042Z,10.40
2018-09-01T04:02:13.943Z,10.30
2018-09-01T04:06:16.717Z,10.30
2018-09-01T04:10:19.356Z,10.30
2018-09-01T04:14:22.011Z,10.30
2018-09-01T04:18:24.596Z,10.30
2018-09-01T04:22:27.251Z,10.30
2018-09-01T04:26:29.921Z,10.20
2018-09-01T04:30:32.615Z,10.20
2018-09-01T04:34:35.324Z,10.10
2018-09-01T04:38:37.995Z,9.90
2018-09-01T04:42:40.738Z,10.10
2018-09-01T04:46:43.347Z,10.00
2018-09-01T04:50:46.080Z,10.10
2018-09-01T04:54:48.689Z,10.00
2018-09-01T04:58:51.307Z,10.00
2018-09-01T05:02:54.248Z,10.00
2018-09-01T05:06:56.894Z,10.00
2018-09-01T05:10:59.624Z,10.20
2018-09-01T05:15:02.253Z,10.40
2018-09-01T05:19:05.117Z,10.50
2018-09-01T05:23:07.695Z,10.70
2018-09-01T05:27:10.331Z,11.00
2018-09-01T05:31:12.909Z,11.30
2018-09-01T05:35:15.620Z,11.60
2018-09-01T05:39:18.263Z,11.70
2018-09-01T05:43:21.024Z,11.90
2018-09-01T05:47:23.667Z,12.10
2018-09-01T05:51:26.275Z,12.30
2018-09-01T05:55:29.865Z,12.60
2018-09-01T05:59:32.625Z,12.80
2018-09-01T06:03:35.343Z,13.10
2018-09-01T06:07:37.993Z,13.50
2018-09-01T06:11:40.868Z,13.80
2018-09-01T06:15:43.545Z,13.70
2018-09-01T06:19:46.171Z,14.00
2018-09-01T06:23:48.819Z,14.30
2018-09-01T06:27:52.884Z,14.50
2018-09-01T06:32:00.866Z,14.60
2018-09-01T06:36:03.465Z,15.10
2018-09-01T06:40:06.329Z,15.50
2018-09-01T06:44:09.019Z,15.90
2018-09-01T06:48:11.633Z,16.00
2018-09-01T06:52:14.575Z,16.60
2018-09-01T06:56:29.607Z,16.90
2018-09-01T07:00:34.987Z,17.20
2018-09-01T07:04:39.692Z,16.80
2018-09-01T07:08:42.477Z,16.60
2018-09-01T07:12:44.993Z,17.40
2018-09-01T07:16:47.591Z,17.80
2018-09-01T07:20:50.145Z,17.80
2018-09-01T07:24:52.741Z,18.20
2018-09-01T07:28:55.652Z,18.20
2018-09-01T07:32:58.213Z,17.80
2018-09-01T07:37:00.867Z,18.30
2018-09-01T07:41:03.500Z,19.00
2018-09-01T07:45:06.259Z,19.00
2018-09-01T07:49:08.855Z,19.70
2018-09-01T07:53:11.539Z,20.20
2018-09-01T07:57:14.119Z,20.10
2018-09-01T08:01:16.715Z,20.20
2018-09-01T08:05:19.324Z,20.40
2018-09-01T08:09:21.971Z,20.10
2018-09-01T08:13:24.660Z,20.10
2018-09-01T08:17:27.307Z,20.40
2018-09-01T08:21:29.936Z,20.40
2018-09-01T08:25:32.899Z,20.70
2018-09-01T08:29:35.553Z,21.60
2018-09-01T08:33:38.271Z,20.80
2018-09-01T08:37:40.839Z,21.30
2018-09-01T08:41:43.446Z,20.90
2018-09-01T08:45:46.031Z,21.20
2018-09-01T08:49:48.687Z,21.20
2018-09-01T08:53:51.386Z,21.10
2018-09-01T08:57:53.936Z,21.10
2018-09-01T09:01:56.677Z,21.00
2018-09-01T09:05:59.246Z,21.40
2018-09-01T09:10:01.917Z,21.20
2018-09-01T09:14:04.680Z,21.60
2018-09-01T09:18:09.021Z,21.60
2018-09-01T09:22:11.758Z,21.40
2018-09-01T09:26:14.961Z,21.70
2018-09-01T09:30:17.775Z,22.10
2018-09-01T09:34:27.646Z,22.10
2018-09-01T09:38:30.215Z,21.90
2018-09-01T09:47:01.094Z,21.90
2018-09-01T09:51:03.916Z,21.70
2018-09-01T09:55:06.679Z,21.40
2018-09-01T09:59:09.429Z,20.90
2018-09-01T10:03:12.164Z,21.00
2018-09-01T10:07:14.930Z,21.60
2018-09-01T10:11:17.673Z,22.40
2018-09-01T10:15:20.334Z,22.30
2018-09-01T10:19:22.943Z,22.30
2018-09-01T10:23:25.603Z,21.30
2018-09-01T10:27:28.235Z,21.10
2018-09-01T10:31:30.868Z,20.80
2018-09-01T10:35:33.708Z,21.20
2018-09-01T10:39:36.640Z,22.60
2018-09-01T10:43:39.591Z,22.20
2018-09-01T10:47:42.426Z,21.60
2018-09-01T10:51:45.191Z,21.10
2018-09-01T10:55:47.955Z,20.70
2018-09-01T10:59:50.771Z,20.50
2018-09-01T11:03:53.710Z,20.90
2018-09-01T11:07:56.617Z,21.50
2018-09-01T11:11:59.867Z,22.30
2018-09-01T11:16:02.527Z,22.80
2018-09-01T11:20:05.326Z,23.60
2018-09-01T11:24:08.071Z,23.20
2018-09-01T11:28:10.827Z,23.30
2018-09-01T11:32:13.565Z,22.80
2018-09-01T11:36:16.200Z,22.20
2018-09-01T11:40:19.357Z,22.90
2018-09-01T11:44:25.829Z,22.20
2018-09-01T11:48:28.749Z,21.60
2018-09-01T11:52:31.590Z,21.10
2018-09-01T11:56:34.605Z,20.90
2018-09-01T12:00:39.645Z,20.50
2018-09-01T12:04:42.488Z,20.80
2018-09-01T12:08:45.461Z,20.70
2018-09-01T12:12:49.474Z,20.90
2018-09-01T12:16:52.891Z,21.70
2018-09-01T12:20:55.578Z,22.50
2018-09-01T12:24:58.377Z,22.90
2018-09-01T12:29:01.622Z,23.30
2018-09-01T12:33:04.658Z,23.10
2018-09-01T12:37:07.335Z,23.30
2018-09-01T12:41:09.968Z,23.30
2018-09-01T12:45:12.612Z,24.00
2018-09-01T12:49:15.968Z,23.20
2018-09-01T12:53:20.034Z,22.80
2018-09-01T12:57:22.780Z,22.30
2018-09-01T13:01:25.586Z,21.90
2018-09-01T13:05:29.371Z,21.70
2018-09-01T13:09:32.035Z,22.20
2018-09-01T13:13:35.386Z,22.60
2018-09-01T13:17:38.454Z,22.70
2018-09-01T13:21:41.366Z,22.90
2018-09-01T13:25:44.091Z,23.30
2018-09-01T13:29:46.660Z,23.40
2018-09-01T13:33:49.333Z,23.20
2018-09-01T13:37:52.151Z,22.90
2018-09-01T13:41:54.804Z,23.40
2018-09-01T13:45:57.678Z,23.20
2018-09-01T13:50:00.471Z,23.00
2018-09-01T13:54:03.429Z,22.90
2018-09-01T13:58:06.157Z,22.80
2018-09-01T14:02:08.845Z,22.70
2018-09-01T14:06:11.498Z,22.30
2018-09-01T14:10:14.187Z,21.90
2018-09-01T14:14:16.835Z,21.40
2018-09-01T14:18:19.436Z,21.50
2018-09-01T14:22:21.990Z,22.10
2018-09-01T14:26:24.632Z,21.80
2018-09-01T14:30:27.367Z,21.40
2018-09-01T14:34:30.826Z,21.20
2018-09-01T14:38:33.503Z,20.90
2018-09-01T14:42:36.036Z,21.30
2018-09-01T14:46:38.815Z,21.60
2018-09-01T14:54:50.598Z,22.00
2018-09-01T14:58:53.193Z,22.20
2018-09-01T15:02:55.831Z,22.50
2018-09-01T15:06:58.507Z,22.50
2018-09-01T15:11:01.131Z,22.20
2018-09-01T15:15:04.124Z,21.80
2018-09-01T15:19:06.910Z,21.70
2018-09-01T15:23:09.519Z,21.50
2018-09-01T15:27:12.175Z,21.40
2018-09-01T15:31:14.837Z,21.50
2018-09-01T15:35:17.668Z,21.70
2018-09-01T15:39:20.418Z,21.60
2018-09-01T15:43:23.084Z,21.50
2018-09-01T15:47:26.794Z,21.30
2018-09-01T15:51:29.655Z,21.00
2018-09-01T15:55:32.373Z,20.90
2018-09-01T15:59:34.945Z,20.90
2018-09-01T16:03:37.638Z,20.70
2018-09-01T16:07:40.315Z,20.60
2018-09-01T16:11:42.997Z,20.50
2018-09-01T16:15:45.652Z,20.60
2018-09-01T16:19:48.384Z,20.50
2018-09-01T16:23:51.014Z,20.50
2018-09-01T16:27:53.720Z,20.70
2018-09-01T16:31:56.974Z,20.60
2018-09-01T16:35:59.877Z,20.50
2018-09-01T16:40:02.945Z,20.50
2018-09-01T16:44:05.610Z,20.40
2018-09-01T16:48:08.763Z,20.40
2018-09-01T16:52:11.634Z,20.30
2018-09-01T16:56:14.254Z,20.20
2018-09-01T17:00:16.936Z,20.20
2018-09-01T17:04:19.588Z,20.10
2018-09-01T17:08:22.268Z,20.10
2018-09-01T17:12:25.126Z,20.20
2018-09-01T17:16:28.619Z,20.20
2018-09-01T17:20:31.378Z,20.00
2018-09-01T17:24:34.033Z,19.90
2018-09-01T17:28:36.799Z,19.80
2018-09-01T17:32:39.433Z,19.70
2018-09-01T17:36:42.144Z,19.60
2018-09-01T17:40:44.947Z,19.50
2018-09-01T17:44:47.934Z,19.50
2018-09-01T17:48:50.737Z,19.50
2018-09-01T17:52:53.446Z,19.50
2018-09-01T17:56:56.515Z,19.60
2018-09-01T18:00:59.161Z,19.40
2018-09-01T18:05:01.984Z,19.20
2018-09-01T18:09:05.447Z,19.10
2018-09-01T18:13:08.251Z,19.20
2018-09-01T18:17:10.893Z,19.10
2018-09-01T18:21:13.567Z,19.10
2018-09-01T18:25:16.318Z,18.90
2018-09-01T18:29:18.971Z,18.70
2018-09-01T18:33:21.556Z,18.80
2018-09-01T18:37:24.243Z,18.90
2018-09-01T18:41:26.893Z,18.80
2018-09-01T18:45:29.852Z,18.70
2018-09-01T18:49:32.496Z,18.60
2018-09-01T18:53:35.182Z,18.60
2018-09-01T18:57:37.791Z,18.60
2018-09-01T19:01:40.651Z,18.50
2018-09-01T19:05:43.258Z,18.20
2018-09-01T19:09:46.005Z,18.10
2018-09-01T19:13:48.792Z,18.30
2018-09-01T19:17:52.210Z,18.40
2018-09-01T19:21:54.822Z,18.20
2018-09-01T19:25:57.391Z,18.10
2018-09-01T19:30:00.021Z,18.20
2018-09-01T19:34:02.717Z,18.10
2018-09-01T19:38:05.333Z,18.20
2018-09-01T19:42:07.957Z,18.00
2018-09-01T19:46:10.575Z,17.90
2018-09-01T19:50:13.857Z,17.80
2018-09-01T19:54:16.462Z,17.80
2018-09-01T19:58:19.207Z,17.80
2018-09-01T20:02:21.886Z,17.50
2018-09-01T20:06:24.750Z,17.50
2018-09-01T20:10:27.544Z,17.70
2018-09-01T20:14:30.224Z,17.70
2018-09-01T20:18:33.494Z,17.70
2018-09-01T20:22:36.098Z,17.50
2018-09-01T20:26:38.873Z,17.30
2018-09-01T20:30:41.481Z,16.90
2018-09-01T20:34:45.017Z,17.00
2018-09-01T20:38:47.671Z,16.90
2018-09-01T20:42:50.255Z,17.00
2018-09-01T20:46:53.041Z,17.00
2018-09-01T20:50:55.661Z,17.00
2018-09-01T20:54:58.241Z,16.70
2018-09-01T20:59:00.836Z,16.70
2018-09-01T21:03:03.473Z,16.60
2018-09-01T21:07:06.107Z,16.40
2018-09-01T21:11:08.705Z,16.60
2018-09-01T21:15:11.355Z,16.40
2018-09-01T21:19:13.906Z,16.40
2018-09-01T21:23:16.595Z,16.50
2018-09-01T21:27:19.190Z,16.60
2018-09-01T21:31:21.803Z,16.50
2018-09-01T21:35:24.365Z,16.60
2018-09-01T21:39:27.140Z,16.60
2018-09-01T21:43:30.062Z,16.40
2018-09-01T21:47:32.788Z,16.40
2018-09-01T21:51:35.468Z,16.30
2018-09-01T21:55:38.413Z,16.20
2018-09-01T21:59:41.497Z,16.40
2018-09-01T22:03:46.408Z,16.30
2018-09-01T22:07:49.236Z,16.30
2018-09-01T22:11:52.355Z,16.10
2018-09-01T22:15:55.393Z,16.10
2018-09-01T22:19:58.037Z,16.40
2018-09-01T22:24:00.726Z,16.10
2018-09-01T22:28:03.576Z,16.30
2018-09-01T22:32:06.391Z,16.40
2018-09-01T22:36:09.142Z,15.90
2018-09-01T22:40:12.299Z,16.00
2018-09-01T22:44:14.899Z,16.30
2018-09-01T22:48:17.511Z,15.90
2018-09-01T22:52:20.497Z,15.90
2018-09-01T22:56:23.096Z,16.00
2018-09-01T23:00:25.685Z,15.70
2018-09-01T23:04:28.246Z,15.50
2018-09-01T23:08:30.970Z,15.50
2018-09-01T23:12:34.267Z,15.60
2018-09-01T23:16:36.923Z,15.70
2018-09-01T23:20:39.612Z,15.90
2018-09-01T23:24:42.267Z,15.40
2018-09-01T23:28:44.837Z,15.30
2018-09-01T23:32:47.476Z,15.60
2018-09-01T23:36:50.022Z,15.80
2018-09-01T23:40:52.651Z,15.90
2018-09-01T23:44:55.294Z,15.70
2018-09-01T23:48:57.965Z,15.50
2018-09-01T23:53:00.572Z,15.50
2018-09-01T23:57:03.271Z,15.50
